Time;durP1;ratioP1;P1;durP2;ratioP2;P2;SDS_P1;SDS_P2;PMS_P1;PMS_P2;Temp;Humidity;BMP_temperature;BMP_pressure;BME280_temperature;BME280_humidity;BME280_pressure;Samples;Min_cycle;Max_cycle;Signal;HPM_P1;HPM_P2
2021/03/10 00:01:02;;;;;;;9.32;2.28;;;0.70;95.70;;;;;;5095940;28;20181;-78
2021/03/10 00:03:29;;;;;;;7.03;2.58;;;0.70;95.80;;;;;;5095871;28;20182;-79
2021/03/10 00:05:55;;;;;;;7.88;2.35;;;0.70;95.90;;;;;;5095704;28;20508;-78
2021/03/10 00:08:21;;;;;;;6.75;2.25;;;0.60;96.10;;;;;;5094985;28;20213;-78
2021/03/10 00:10:47;;;;;;;7.57;2.67;;;0.60;96.10;;;;;;5095068;28;20169;-78
2021/03/10 00:13:13;;;;;;;6.40;2.45;;;0.60;96.10;;;;;;5095966;28;20622;-78
2021/03/10 00:15:39;;;;;;;3.72;1.38;;;0.60;96.20;;;;;;5095737;28;20188;-79
2021/03/10 00:18:06;;;;;;;3.40;1.17;;;0.70;95.40;;;;;;5096275;28;20193;-79
2021/03/10 00:20:32;;;;;;;5.07;1.25;;;0.80;95.10;;;;;;5095903;28;20181;-78
2021/03/10 00:22:58;;;;;;;8.65;1.38;;;0.90;95.00;;;;;;5078702;28;20193;-78
2021/03/10 00:25:24;;;;;;;4.72;1.05;;;0.90;94.70;;;;;;5097104;28;20539;-79
2021/03/10 00:27:50;;;;;;;3.13;1.00;;;1.00;94.50;;;;;;5094393;28;20197;-80
2021/03/10 00:30:17;;;;;;;5.65;1.15;;;1.00;94.30;;;;;;5096221;28;20304;-80
2021/03/10 00:32:43;;;;;;;3.90;1.23;;;1.00;94.20;;;;;;5094407;28;20188;-78
2021/03/10 00:35:10;;;;;;;5.05;1.13;;;1.00;94.20;;;;;;5064823;28;20629;-77
2021/03/10 00:37:36;;;;;;;7.63;1.35;;;1.00;94.70;;;;;;5088677;28;20192;-78
2021/03/10 00:40:03;;;;;;;8.30;1.20;;;1.00;94.00;;;;;;5095906;28;20545;-77
2021/03/10 00:42:29;;;;;;;3.10;1.20;;;1.00;94.10;;;;;;5097544;28;20192;-80
2021/03/10 00:44:55;;;;;;;3.08;1.20;;;1.00;94.00;;;;;;5098403;28;20201;-78
2021/03/10 00:47:21;;;;;;;4.45;1.60;;;1.00;94.00;;;;;;5098307;28;20525;-79
2021/03/10 00:49:47;;;;;;;7.10;1.70;;;1.00;93.70;;;;;;5087314;28;20205;-78
2021/03/10 00:52:13;;;;;;;3.00;1.08;;;1.00;93.80;;;;;;5082398;28;20178;-78
2021/03/10 00:54:40;;;;;;;4.15;1.20;;;1.00;93.90;;;;;;5096292;28;20185;-79
2021/03/10 00:57:07;;;;;;;2.03;0.95;;;1.00;93.70;;;;;;5098158;28;20247;-79
2021/03/10 00:59:33;;;;;;;2.38;0.85;;;0.90;93.60;;;;;;5097768;28;20178;-79
2021/03/10 01:01:59;;;;;;;2.72;1.00;;;0.90;93.60;;;;;;5097876;28;20566;-78
2021/03/10 01:04:26;;;;;;;6.03;1.13;;;0.90;93.50;;;;;;5095904;28;20176;-79
2021/03/10 01:06:52;;;;;;;2.00;0.85;;;0.90;93.60;;;;;;5097280;28;20233;-78
2021/03/10 01:09:18;;;;;;;3.90;0.93;;;0.80;93.40;;;;;;5096423;28;20216;-77
2021/03/10 01:11:45;;;;;;;3.03;0.93;;;0.80;93.30;;;;;;5097370;28;20232;-78
2021/03/10 01:14:11;;;;;;;1.13;0.57;;;0.80;93.50;;;;;;5098400;28;20181;-79
2021/03/10 01:16:37;;;;;;;5.78;0.98;;;0.70;93.50;;;;;;5096734;28;20177;-77
2021/03/10 01:19:04;;;;;;;5.00;0.75;;;0.70;93.50;;;;;;5094992;28;20185;-77
2021/03/10 01:21:30;;;;;;;2.22;0.70;;;0.70;93.10;;;;;;5095613;28;20630;-76
2021/03/10 01:23:56;;;;;;;2.45;0.75;;;0.70;93.20;;;;;;5081515;28;20544;-79
2021/03/10 01:26:22;;;;;;;2.50;0.68;;;0.80;92.90;;;;;;5097261;28;20515;-76
2021/03/10 01:28:48;;;;;;;2.08;0.82;;;0.70;93.10;;;;;;5095852;28;20563;-75
2021/03/10 01:31:14;;;;;;;1.95;0.50;;;0.60;93.10;;;;;;5094490;28;20213;-76
2021/03/10 01:33:41;;;;;;;4.38;0.80;;;0.60;93.00;;;;;;5078474;28;20184;-82
2021/03/10 01:36:07;;;;;;;1.73;0.70;;;0.60;93.00;;;;;;5095880;28;20179;-76
2021/03/10 01:38:33;;;;;;;2.65;0.60;;;0.50;92.90;;;;;;5094692;28;20190;-76
2021/03/10 01:41:00;;;;;;;1.80;0.50;;;0.50;93.00;;;;;;5093812;28;20211;-77
2021/03/10 01:43:26;;;;;;;1.75;0.60;;;0.40;93.20;;;;;;5085658;28;20181;-73
2021/03/10 01:45:52;;;;;;;6.60;0.90;;;0.30;93.30;;;;;;5095534;28;20180;-78
2021/03/10 01:48:22;;;;;;;2.67;0.55;;;0.20;93.30;;;;;;5098759;28;20302;-79
2021/03/10 01:50:48;;;;;;;3.22;0.63;;;0.20;93.40;;;;;;5085869;28;20176;-79
2021/03/10 01:53:14;;;;;;;1.30;0.57;;;0.10;93.50;;;;;;5061975;28;20189;-79
2021/03/10 01:55:41;;;;;;;1.77;0.65;;;0.10;93.90;;;;;;5062098;28;20963;-78
2021/03/10 01:58:07;;;;;;;1.50;0.50;;;0.00;93.80;;;;;;5099270;28;20187;-77
2021/03/10 02:00:33;;;;;;;2.40;0.45;;;-0.10;93.90;;;;;;5095971;28;20173;-79
2021/03/10 02:02:59;;;;;;;2.53;0.70;;;-0.10;94.10;;;;;;5093786;28;20177;-77
2021/03/10 02:05:25;;;;;;;5.05;1.02;;;0.00;93.80;;;;;;5078342;28;20564;-78
2021/03/10 02:08:07;;;;;;;3.22;0.73;;;-0.10;93.90;;;;;;5079078;28;20157;-78
2021/03/10 02:10:51;;;;;;;1.52;0.60;;;-0.20;93.90;;;;;;5095992;28;20161;-79
2021/03/10 02:13:38;;;;;;;1.45;0.55;;;-0.30;94.20;;;;;;5093814;28;20184;-79
2021/03/10 02:16:46;;;;;;;2.08;0.70;;;-0.30;94.30;;;;;;5094632;28;20173;-78
2021/03/10 02:19:30;;;;;;;5.47;0.80;;;-0.40;94.60;;;;;;5076236;28;20184;-77
2021/03/10 02:22:04;;;;;;;2.42;0.80;;;-0.40;94.80;;;;;;5095105;28;20161;-78
2021/03/10 02:24:34;;;;;;;5.45;0.65;;;-0.50;94.70;;;;;;5095285;28;20162;-78
2021/03/10 02:27:11;;;;;;;1.73;0.90;;;-0.50;95.30;;;;;;5093715;28;20189;-77
2021/03/10 02:29:37;;;;;;;2.22;1.08;;;-0.50;95.10;;;;;;5090307;28;20207;-79
2021/03/10 02:32:03;;;;;;;1.80;0.60;;;-0.50;95.00;;;;;;5071174;28;20213;-78
2021/03/10 02:34:30;;;;;;;0.88;0.50;;;-0.40;95.40;;;;;;5073222;28;20177;-77
2021/03/10 02:36:57;;;;;;;1.23;0.68;;;-0.50;95.00;;;;;;5072219;28;20178;-77
2021/03/10 02:39:23;;;;;;;2.92;0.95;;;-0.50;95.20;;;;;;5072367;28;20176;-77
2021/03/10 02:41:49;;;;;;;1.75;0.80;;;-0.60;95.30;;;;;;5072095;28;20166;-77
2021/03/10 02:44:15;;;;;;;4.63;0.88;;;-0.60;95.30;;;;;;5056185;28;20204;-78
2021/03/10 02:46:42;;;;;;;3.17;0.90;;;-0.70;95.30;;;;;;5072190;28;20170;-77
2021/03/10 02:49:08;;;;;;;2.70;0.80;;;-0.70;95.50;;;;;;5072585;28;20208;-74
2021/03/10 02:51:34;;;;;;;1.95;0.75;;;-0.70;95.70;;;;;;5073905;28;20642;-79
2021/03/10 02:54:01;;;;;;;1.70;0.63;;;-0.70;95.60;;;;;;5053018;28;20201;-79
2021/03/10 02:56:27;;;;;;;4.10;1.05;;;-0.70;95.60;;;;;;5072866;28;20170;-76
2021/03/10 02:58:54;;;;;;;1.77;0.70;;;-0.70;95.70;;;;;;5074943;28;20182;-77
2021/03/10 03:01:20;;;;;;;1.42;0.77;;;-0.70;95.60;;;;;;5072841;28;20170;-79
2021/03/10 03:03:46;;;;;;;2.83;0.95;;;-0.80;95.70;;;;;;5057411;28;20173;-78
2021/03/10 03:06:12;;;;;;;2.15;0.60;;;-0.80;95.70;;;;;;5073348;28;20187;-79
2021/03/10 03:08:38;;;;;;;3.25;0.70;;;-0.70;95.80;;;;;;5074262;28;20217;-74
2021/03/10 03:11:04;;;;;;;2.67;0.80;;;-0.70;95.60;;;;;;5074364;28;20174;-80
2021/03/10 03:13:31;;;;;;;1.40;0.70;;;-0.70;95.40;;;;;;5073412;28;20185;-79
2021/03/10 03:15:59;;;;;;;3.85;0.90;;;-0.70;95.60;;;;;;5072141;28;20173;-79
2021/03/10 03:18:26;;;;;;;2.40;0.77;;;-0.70;95.50;;;;;;5073191;28;20189;-79
2021/03/10 03:20:53;;;;;;;1.60;0.68;;;-0.70;95.60;;;;;;5067749;28;20504;-76
2021/03/10 03:23:20;;;;;;;1.40;0.68;;;-0.70;95.70;;;;;;5071407;28;20200;-78
2021/03/10 03:25:47;;;;;;;3.78;0.77;;;-0.70;95.40;;;;;;5055265;28;20166;-78
2021/03/10 03:28:18;;;;;;;3.33;0.75;;;-0.70;95.50;;;;;;5071056;28;20186;-78
2021/03/10 03:30:45;;;;;;;4.32;1.15;;;-0.70;95.30;;;;;;5071285;28;20202;-77
2021/03/10 03:33:16;;;;;;;1.70;0.88;;;-0.70;95.30;;;;;;5054641;28;20185;-76
2021/03/10 03:35:43;;;;;;;6.55;0.80;;;-0.70;95.30;;;;;;5072763;28;20537;-79
2021/03/10 03:38:09;;;;;;;4.78;1.02;;;-0.80;95.70;;;;;;5074943;28;20634;-79
2021/03/10 03:40:35;;;;;;;1.80;0.77;;;-0.90;95.60;;;;;;5074724;28;20197;-78
2021/03/10 03:43:02;;;;;;;1.35;0.73;;;-1.00;95.80;;;;;;5072903;28;20169;-79
2021/03/10 03:45:28;;;;;;;2.05;0.88;;;-1.00;95.70;;;;;;5072305;28;20194;-77
2021/03/10 03:47:56;;;;;;;3.08;1.00;;;-1.00;95.80;;;;;;5072913;28;20174;-79
2021/03/10 03:50:23;;;;;;;2.22;1.27;;;-1.00;95.70;;;;;;5070563;28;20202;-76
2021/03/10 03:52:49;;;;;;;4.10;1.00;;;-1.00;95.70;;;;;;5071357;28;20166;-78
2021/03/10 03:55:15;;;;;;;2.80;1.17;;;-1.00;95.60;;;;;;5070111;28;20174;-78
2021/03/10 03:57:42;;;;;;;3.58;1.00;;;-1.00;95.60;;;;;;5071664;28;20649;-79
2021/03/10 04:00:10;;;;;;;1.45;0.70;;;-1.00;95.70;;;;;;5074125;28;20178;-80
2021/03/10 04:02:36;;;;;;;1.63;0.82;;;-1.00;95.80;;;;;;5072755;28;20174;-78
2021/03/10 04:05:02;;;;;;;2.30;0.82;;;-1.10;95.80;;;;;;5072208;28;20178;-80
2021/03/10 04:07:28;;;;;;;2.65;0.80;;;-1.10;95.70;;;;;;5075477;28;20171;-81
2021/03/10 04:09:54;;;;;;;5.03;0.93;;;-1.10;95.70;;;;;;5079705;28;20217;-80
2021/03/10 04:12:21;;;;;;;3.20;1.08;;;-1.20;95.80;;;;;;5077369;28;20170;-80
2021/03/10 04:14:47;;;;;;;1.75;1.10;;;-1.20;95.90;;;;;;5074398;28;20181;-79
2021/03/10 04:17:14;;;;;;;1.90;1.08;;;-1.10;95.70;;;;;;5076464;28;20795;-79
2021/03/10 04:19:41;;;;;;;3.40;1.10;;;-1.10;95.50;;;;;;5079758;28;20174;-79
2021/03/10 04:22:07;;;;;;;1.27;0.88;;;-1.10;95.50;;;;;;5078479;28;20182;-80
2021/03/10 04:24:33;;;;;;;2.00;1.10;;;-1.10;95.40;;;;;;5080452;28;20178;-78
2021/03/10 04:26:59;;;;;;;2.53;0.70;;;-1.10;95.40;;;;;;5080977;28;20177;-79
2021/03/10 04:29:25;;;;;;;2.38;0.80;;;-1.00;95.40;;;;;;5079933;28;20210;-80
2021/03/10 04:31:52;;;;;;;3.83;1.00;;;-1.10;95.50;;;;;;5105272;28;20189;-80
2021/03/10 04:34:18;;;;;;;4.93;1.00;;;-1.10;95.40;;;;;;5101281;28;20197;-80
2021/03/10 04:36:45;;;;;;;1.70;1.02;;;-1.20;95.80;;;;;;5097869;28;20186;-79
2021/03/10 04:39:11;;;;;;;4.40;1.25;;;-1.30;95.80;;;;;;5099686;28;20182;-79
2021/03/10 04:41:37;;;;;;;1.25;0.70;;;-1.40;96.00;;;;;;5095380;28;20517;-79
2021/03/10 04:44:03;;;;;;;6.07;1.00;;;-1.40;96.20;;;;;;5095641;28;20222;-77
2021/03/10 04:46:30;;;;;;;2.20;0.98;;;-1.50;96.50;;;;;;5095200;28;20169;-80
2021/03/10 04:48:56;;;;;;;2.72;1.02;;;-1.50;96.50;;;;;;5096217;28;20204;-78
2021/03/10 04:51:22;;;;;;;4.13;1.35;;;-1.50;96.30;;;;;;5095632;28;20173;-78
2021/03/10 04:53:48;;;;;;;3.75;1.20;;;-1.30;96.10;;;;;;5094173;28;20200;-78
2021/03/10 04:56:14;;;;;;;4.00;1.08;;;-1.40;96.30;;;;;;5094888;28;20170;-78
2021/03/10 04:58:40;;;;;;;2.28;1.15;;;-1.50;96.30;;;;;;5095430;28;20173;-78
2021/03/10 05:01:06;;;;;;;2.83;1.10;;;-1.50;96.40;;;;;;5094852;28;20173;-78
2021/03/10 05:03:33;;;;;;;5.78;1.38;;;-1.60;96.60;;;;;;5095221;28;20180;-79
2021/03/10 05:05:59;;;;;;;2.17;0.80;;;-1.60;96.40;;;;;;5094862;28;20181;-79
2021/03/10 05:08:25;;;;;;;1.98;1.20;;;-1.60;96.60;;;;;;5094214;28;20185;-79
2021/03/10 05:10:51;;;;;;;1.98;1.15;;;-1.60;96.60;;;;;;5095274;28;20231;-78
2021/03/10 05:13:17;;;;;;;2.85;1.45;;;-1.60;96.90;;;;;;5092338;28;20169;-77
2021/03/10 05:15:43;;;;;;;2.25;1.20;;;-1.60;96.60;;;;;;5094399;28;20181;-79
2021/03/10 05:18:09;;;;;;;2.75;1.38;;;-1.60;96.60;;;;;;5094848;28;20169;-77
2021/03/10 05:20:36;;;;;;;3.33;1.50;;;-1.70;96.50;;;;;;5094316;28;20555;-76
2021/03/10 05:23:02;;;;;;;5.45;1.67;;;-1.60;96.70;;;;;;5093994;28;20577;-78
2021/03/10 05:25:28;;;;;;;2.15;1.48;;;-1.60;96.70;;;;;;5094073;28;20188;-78
2021/03/10 05:27:54;;;;;;;2.53;1.42;;;-1.60;96.60;;;;;;5093030;28;20190;-78
2021/03/10 05:30:21;;;;;;;2.85;1.48;;;-1.80;96.80;;;;;;5093456;28;20232;-78
2021/03/10 05:32:47;;;;;;;3.88;1.73;;;-1.80;97.10;;;;;;5075855;28;20188;-79
2021/03/10 05:35:13;;;;;;;4.43;1.50;;;-1.80;97.00;;;;;;5093406;28;20200;-75
2021/03/10 05:37:41;;;;;;;2.22;1.20;;;-1.80;97.00;;;;;;5090824;28;20633;-77
2021/03/10 05:40:07;;;;;;;5.72;1.67;;;-1.80;97.10;;;;;;5093202;28;20185;-78
2021/03/10 05:42:37;;;;;;;3.75;1.80;;;-1.80;97.10;;;;;;5094035;28;20174;-78
2021/03/10 05:45:04;;;;;;;6.13;1.40;;;-1.90;97.20;;;;;;5059979;28;20193;-79
2021/03/10 05:47:30;;;;;;;8.10;1.80;;;-1.80;97.40;;;;;;5075838;28;20174;-79
2021/03/10 05:49:56;;;;;;;3.00;1.52;;;-1.70;97.30;;;;;;5075523;28;20217;-78
2021/03/10 05:52:22;;;;;;;5.53;1.65;;;-1.70;97.20;;;;;;5074717;28;20177;-79
2021/03/10 05:54:50;;;;;;;3.40;2.17;;;-1.70;97.00;;;;;;5075769;28;20177;-80
2021/03/10 05:57:18;;;;;;;5.60;1.75;;;-1.50;96.70;;;;;;5059936;28;20174;-79
2021/03/10 05:59:44;;;;;;;4.70;1.90;;;-1.40;96.60;;;;;;5093982;28;20173;-80
2021/03/10 06:02:10;;;;;;;5.57;1.75;;;-1.40;96.40;;;;;;5088760;28;20172;-77
2021/03/10 06:04:40;;;;;;;4.10;1.70;;;-1.30;96.40;;;;;;5094876;28;20182;-79
2021/03/10 06:07:20;;;;;;;2.78;1.70;;;-1.30;96.10;;;;;;5093899;28;20640;-80
2021/03/10 06:10:03;;;;;;;7.30;1.90;;;-1.30;96.20;;;;;;5074736;28;20216;-79
2021/03/10 06:12:41;;;;;;;3.90;1.67;;;-1.20;96.50;;;;;;5095013;28;20184;-80
2021/03/10 06:15:08;;;;;;;4.00;2.00;;;-1.20;96.10;;;;;;5094026;28;20539;-80
2021/03/10 06:17:45;;;;;;;4.18;1.52;;;-1.20;96.10;;;;;;5094496;28;20172;-81
2021/03/10 06:20:28;;;;;;;5.15;1.55;;;-1.20;96.10;;;;;;5092515;28;20176;-79
2021/03/10 06:22:54;;;;;;;6.00;1.45;;;-1.30;96.00;;;;;;5091100;28;20188;-78
2021/03/10 06:25:25;;;;;;;3.90;1.70;;;-1.30;96.00;;;;;;5090360;28;20176;-79
2021/03/10 06:28:00;;;;;;;5.72;1.90;;;-1.20;96.00;;;;;;5092283;28;20185;-81
2021/03/10 06:30:48;;;;;;;2.28;1.48;;;-1.20;95.90;;;;;;5094063;28;20228;-81
2021/03/10 06:33:21;;;;;;;5.78;2.03;;;-1.10;95.90;;;;;;5076769;28;20166;-79
2021/03/10 06:35:47;;;;;;;5.32;1.95;;;-1.10;96.20;;;;;;5091779;28;20173;-81
2021/03/10 06:38:14;;;;;;;4.50;1.95;;;-1.00;95.90;;;;;;5060639;28;20633;-78
2021/03/10 06:40:51;;;;;;;5.15;1.80;;;-1.00;95.40;;;;;;5074754;28;20676;-78
2021/03/10 06:43:18;;;;;;;3.05;1.58;;;-0.90;95.60;;;;;;5091885;28;20521;-79
2021/03/10 06:45:44;;;;;;;2.10;1.50;;;-0.90;95.40;;;;;;5078002;28;20528;-78
2021/03/10 06:48:36;;;;;;;2.70;1.70;;;-0.80;95.20;;;;;;5096128;28;20188;-80
2021/03/10 06:51:12;;;;;;;2.67;1.58;;;-0.80;95.00;;;;;;5074554;28;20688;-79
2021/03/10 06:53:38;;;;;;;5.50;1.50;;;-0.80;94.90;;;;;;5093878;28;20161;-80
2021/03/10 06:56:04;;;;;;;3.33;1.70;;;-0.70;94.70;;;;;;5063292;28;20176;-80
2021/03/10 06:58:30;;;;;;;3.05;1.48;;;-0.70;94.50;;;;;;5094144;28;20188;-81
2021/03/10 07:01:03;;;;;;;4.28;1.75;;;-0.60;94.30;;;;;;5060372;28;20184;-78
2021/03/10 07:03:29;;;;;;;2.25;1.08;;;-0.60;94.30;;;;;;5092492;28;20181;-81
2021/03/10 07:05:55;;;;;;;1.80;1.10;;;-0.50;93.80;;;;;;5092746;28;20670;-81
2021/03/10 07:08:21;;;;;;;2.00;1.00;;;-0.40;93.60;;;;;;5079225;28;20675;-78
2021/03/10 07:10:48;;;;;;;3.72;1.20;;;-0.30;93.50;;;;;;5072017;28;20212;-80
2021/03/10 07:13:14;;;;;;;3.47;1.40;;;-0.30;93.30;;;;;;5077556;28;20177;-80
2021/03/10 07:15:40;;;;;;;1.92;1.00;;;-0.20;93.30;;;;;;5093052;28;20188;-79
2021/03/10 07:18:07;;;;;;;4.47;1.58;;;-0.10;92.90;;;;;;5061233;28;20184;-78
2021/03/10 07:20:33;;;;;;;3.95;1.35;;;0.00;92.80;;;;;;5061558;28;20535;-82
2021/03/10 07:23:10;;;;;;;3.95;1.10;;;0.20;93.00;;;;;;5094591;28;20637;-80
2021/03/10 07:25:41;;;;;;;3.30;1.42;;;0.40;92.60;;;;;;5046200;28;20559;-76
2021/03/10 07:28:25;;;;;;;2.50;1.23;;;0.40;92.30;;;;;;5083163;28;20174;-81
2021/03/10 07:30:51;;;;;;;2.13;1.15;;;0.50;91.80;;;;;;5069436;28;20684;-79
2021/03/10 07:33:22;;;;;;;2.92;1.35;;;0.50;92.10;;;;;;5093245;28;20200;-80
2021/03/10 07:36:01;;;;;;;2.47;1.20;;;0.70;91.70;;;;;;5091304;28;20624;-78
2021/03/10 07:38:36;;;;;;;4.45;1.27;;;0.80;91.50;;;;;;5090363;28;20162;-80
2021/03/10 07:41:13;;;;;;;2.25;1.23;;;1.00;91.20;;;;;;5091595;28;20169;-80
2021/03/10 07:43:43;;;;;;;4.82;1.20;;;1.10;91.00;;;;;;5081188;28;20189;-77
2021/03/10 07:46:31;;;;;;;3.40;1.20;;;1.20;91.00;;;;;;5078222;28;20153;-76
2021/03/10 07:48:58;;;;;;;4.38;1.15;;;1.30;90.50;;;;;;5092984;28;20165;-76
2021/03/10 07:51:35;;;;;;;4.03;1.13;;;1.40;90.10;;;;;;5061761;28;20673;-77
2021/03/10 07:54:02;;;;;;;3.45;1.40;;;1.80;88.90;;;;;;5096830;28;20177;-78
2021/03/10 07:56:32;;;;;;;2.10;0.98;;;1.60;89.40;;;;;;5082911;28;20517;-78
2021/03/10 07:59:14;;;;;;;4.20;1.20;;;2.00;87.40;;;;;;5097040;28;20528;-78
2021/03/10 08:01:40;;;;;;;1.95;1.02;;;1.90;87.20;;;;;;5096743;28;20181;-80
2021/03/10 08:04:10;;;;;;;4.53;1.15;;;2.30;87.20;;;;;;5098739;28;20170;-78
2021/03/10 08:06:45;;;;;;;2.85;1.27;;;2.60;84.00;;;;;;5060962;28;20196;-78
2021/03/10 08:09:12;;;;;;;4.82;1.25;;;2.60;84.10;;;;;;5094017;28;20185;-78
2021/03/10 08:11:42;;;;;;;4.40;1.20;;;2.60;83.20;;;;;;5096369;28;20174;-77
2021/03/10 08:14:08;;;;;;;5.32;1.23;;;2.40;84.30;;;;;;5096808;28;20243;-78
2021/03/10 08:16:45;;;;;;;1.90;1.05;;;2.20;85.10;;;;;;5083671;28;20177;-79
2021/03/10 08:19:11;;;;;;;5.55;1.20;;;2.60;84.70;;;;;;5095292;28;20177;-77
2021/03/10 08:21:47;;;;;;;6.50;1.20;;;3.00;84.30;;;;;;5081163;28;20174;-79
2021/03/10 08:24:14;;;;;;;7.03;1.02;;;3.30;82.30;;;;;;5092834;28;20617;-75
2021/03/10 08:26:40;;;;;;;3.08;1.23;;;3.40;80.30;;;;;;5095658;28;20185;-78
2021/03/10 08:29:07;;;;;;;2.42;1.30;;;3.10;81.40;;;;;;5096016;28;20188;-80
2021/03/10 08:31:49;;;;;;;2.60;1.00;;;2.90;81.70;;;;;;5096739;28;20235;-77
2021/03/10 08:34:17;;;;;;;2.90;1.23;;;3.20;82.10;;;;;;5081900;28;20169;-77
2021/03/10 08:36:43;;;;;;;2.67;1.00;;;3.60;79.80;;;;;;5096938;28;20672;-80
2021/03/10 08:39:13;;;;;;;2.47;0.98;;;3.50;79.50;;;;;;5087098;28;20185;-81
2021/03/10 08:41:51;;;;;;;6.82;1.50;;;3.70;79.80;;;;;;5106780;28;20158;-78
2021/03/10 08:44:21;;;;;;;5.45;1.40;;;3.70;78.90;;;;;;5089570;28;20217;-80
2021/03/10 08:46:48;;;;;;;4.05;1.10;;;3.70;79.30;;;;;;5095709;28;20157;-76
2021/03/10 08:49:22;;;;;;;3.63;1.42;;;3.10;79.40;;;;;;5076979;28;20188;-79
2021/03/10 08:51:49;;;;;;;7.22;1.17;;;2.80;81.40;;;;;;5097394;28;20181;-82
2021/03/10 08:54:17;;;;;;;5.70;1.33;;;3.10;81.60;;;;;;5095239;28;20177;-77
2021/03/10 08:56:52;;;;;;;7.63;1.40;;;2.90;82.30;;;;;;5094703;28;20166;-81
2021/03/10 08:59:18;;;;;;;2.42;1.25;;;3.00;82.10;;;;;;5092802;28;20182;-80
2021/03/10 09:01:48;;;;;;;5.90;1.30;;;2.90;82.20;;;;;;5082484;28;20526;-78
2021/03/10 09:04:27;;;;;;;4.03;1.60;;;3.10;82.30;;;;;;5094718;28;20275;-79
2021/03/10 09:06:55;;;;;;;2.38;1.30;;;2.60;82.50;;;;;;5093869;28;20185;-81
2021/03/10 09:09:22;;;;;;;2.60;1.25;;;2.50;83.20;;;;;;5078093;28;20177;-80
2021/03/10 09:11:48;;;;;;;9.65;1.45;;;2.60;84.40;;;;;;5080608;28;20182;-80
2021/03/10 09:14:14;;;;;;;3.47;1.40;;;2.70;83.40;;;;;;5081796;28;20178;-82
2021/03/10 09:16:51;;;;;;;7.57;1.58;;;2.70;83.80;;;;;;5061074;28;20177;-81
2021/03/10 09:19:33;;;;;;;3.47;1.23;;;2.80;83.00;;;;;;5090675;28;20181;-80
2021/03/10 09:22:20;;;;;;;5.35;1.40;;;3.00;82.50;;;;;;5093718;28;20177;-82
2021/03/10 09:24:49;;;;;;;5.00;1.30;;;2.70;83.40;;;;;;5093930;28;20177;-78
2021/03/10 09:27:17;;;;;;;3.88;1.00;;;2.50;83.50;;;;;;5094527;28;20184;-79
2021/03/10 09:29:43;;;;;;;2.70;1.30;;;2.50;83.80;;;;;;5076603;28;20192;-78
2021/03/10 09:32:10;;;;;;;5.82;1.17;;;2.50;84.60;;;;;;5096272;28;20221;-81
2021/03/10 09:34:36;;;;;;;2.08;1.17;;;2.70;83.70;;;;;;5096019;28;20173;-78
2021/03/10 09:37:13;;;;;;;9.35;1.50;;;2.90;83.40;;;;;;5096299;28;20177;-79
2021/03/10 09:39:40;;;;;;;6.38;1.30;;;3.00;82.60;;;;;;5094605;28;20161;-81
2021/03/10 09:42:07;;;;;;;16.42;1.42;;;3.20;82.90;;;;;;5095217;28;20172;-80
2021/03/10 09:44:42;;;;;;;7.15;2.22;;;3.10;82.30;;;;;;5077555;28;20189;-79
2021/03/10 09:47:13;;;;;;;4.97;1.40;;;2.80;83.20;;;;;;5094384;28;20605;-81
2021/03/10 09:49:59;;;;;;;4.28;1.80;;;2.60;84.20;;;;;;5084873;28;20180;-78
2021/03/10 09:52:33;;;;;;;6.63;1.73;;;2.60;84.10;;;;;;5094780;28;20181;-79
2021/03/10 09:54:59;;;;;;;2.83;1.55;;;2.80;83.80;;;;;;5095626;28;20181;-79
2021/03/10 09:57:29;;;;;;;6.82;1.63;;;2.70;83.90;;;;;;5095913;28;20521;-77
2021/03/10 09:59:56;;;;;;;3.15;1.60;;;2.70;84.00;;;;;;5098897;28;20188;-78
2021/03/10 10:02:23;;;;;;;5.38;1.67;;;3.00;83.70;;;;;;5091574;28;20180;-79
2021/03/10 10:05:17;;;;;;;6.20;1.83;;;3.30;82.60;;;;;;5078000;28;20177;-78
2021/03/10 10:07:43;;;;;;;9.65;1.65;;;3.00;83.00;;;;;;5076687;28;20197;-78
2021/03/10 10:10:10;;;;;;;4.15;2.05;;;3.00;83.00;;;;;;5094663;28;20201;-76
2021/03/10 10:12:42;;;;;;;2.88;1.67;;;3.00;83.60;;;;;;5060436;28;20538;-76
2021/03/10 10:15:09;;;;;;;7.45;1.75;;;2.90;83.00;;;;;;5093335;28;20173;-80
2021/03/10 10:17:37;;;;;;;4.22;1.27;;;3.00;84.00;;;;;;5093844;28;20177;-76
2021/03/10 10:20:05;;;;;;;3.90;1.77;;;3.10;82.80;;;;;;5092128;28;20176;-77
2021/03/10 10:22:31;;;;;;;4.05;1.52;;;3.20;82.50;;;;;;5096677;28;20178;-76
2021/03/10 10:24:58;;;;;;;8.32;1.88;;;3.40;82.60;;;;;;5093807;28;20192;-79
2021/03/10 10:27:24;;;;;;;9.05;1.65;;;3.60;81.70;;;;;;5096326;28;20185;-77
2021/03/10 10:29:50;;;;;;;2.72;1.60;;;3.90;80.20;;;;;;5094833;28;20180;-76
2021/03/10 10:32:16;;;;;;;4.38;1.75;;;3.70;80.40;;;;;;5095430;28;20174;-77
2021/03/10 10:34:42;;;;;;;5.70;1.83;;;3.90;81.60;;;;;;5095846;28;20180;-77
2021/03/10 10:37:08;;;;;;;8.15;1.40;;;4.10;79.70;;;;;;5093316;28;20516;-79
2021/03/10 10:39:34;;;;;;;7.57;2.25;;;3.80;80.20;;;;;;5094718;28;20184;-80
2021/03/10 10:42:00;;;;;;;8.40;1.90;;;3.70;80.00;;;;;;5097612;28;20185;-81
2021/03/10 10:44:27;;;;;;;10.45;2.50;;;3.90;80.40;;;;;;5096186;28;20205;-78
2021/03/10 10:46:53;;;;;;;10.57;2.30;;;4.10;78.60;;;;;;5095796;28;20177;-77
2021/03/10 10:49:19;;;;;;;4.18;2.15;;;4.20;79.60;;;;;;5094474;28;20189;-80
2021/03/10 10:51:46;;;;;;;8.35;2.95;;;4.00;78.30;;;;;;5094310;28;20224;-79
2021/03/10 10:54:12;;;;;;;8.13;3.00;;;4.00;79.10;;;;;;5093828;28;20531;-78
2021/03/10 10:56:39;;;;;;;7.03;2.75;;;4.00;79.00;;;;;;5092919;28;20188;-75
2021/03/10 10:59:05;;;;;;;7.00;3.30;;;3.70;78.30;;;;;;5074972;28;20181;-77
2021/03/10 11:01:31;;;;;;;8.27;3.20;;;3.80;78.60;;;;;;5092071;28;20181;-76
2021/03/10 11:03:57;;;;;;;4.50;2.38;;;3.90;77.10;;;;;;5091912;28;20173;-79
2021/03/10 11:06:24;;;;;;;7.57;2.90;;;4.10;77.90;;;;;;5089383;28;20192;-77
2021/03/10 11:08:50;;;;;;;9.13;2.72;;;4.00;77.40;;;;;;5092407;28;20170;-75
2021/03/10 11:11:16;;;;;;;11.73;2.92;;;4.00;76.40;;;;;;5092622;28;20298;-76
2021/03/10 11:13:42;;;;;;;9.50;2.38;;;4.10;76.00;;;;;;5089248;28;20177;-76
2021/03/10 11:16:08;;;;;;;10.25;2.85;;;4.10;76.50;;;;;;5091253;28;20181;-77
2021/03/10 11:18:34;;;;;;;7.40;3.10;;;3.90;77.40;;;;;;5092699;28;20177;-75
2021/03/10 11:21:00;;;;;;;12.52;3.00;;;3.90;77.30;;;;;;5092058;28;20177;-78
2021/03/10 11:23:26;;;;;;;6.68;2.72;;;3.90;76.70;;;;;;5092264;28;20169;-79
2021/03/10 11:25:53;;;;;;;8.13;3.03;;;4.00;76.30;;;;;;5092239;28;20193;-78
2021/03/10 11:28:19;;;;;;;10.90;2.47;;;4.20;75.20;;;;;;5096892;28;20651;-75
2021/03/10 11:30:45;;;;;;;5.35;2.75;;;4.30;73.20;;;;;;5095238;28;20224;-78
2021/03/10 11:33:11;;;;;;;10.18;2.70;;;4.30;72.70;;;;;;5094889;28;20177;-76
2021/03/10 11:35:37;;;;;;;6.35;2.80;;;4.40;72.30;;;;;;5096221;28;20169;-76
2021/03/10 11:38:03;;;;;;;16.17;3.10;;;4.20;72.60;;;;;;5095889;28;20527;-76
2021/03/10 11:40:29;;;;;;;7.03;2.38;;;4.30;72.40;;;;;;5096844;28;20632;-77
2021/03/10 11:42:56;;;;;;;12.07;2.58;;;4.40;71.90;;;;;;5096604;28;20177;-79
2021/03/10 11:45:22;;;;;;;6.55;2.65;;;4.40;70.90;;;;;;5096711;28;20216;-77
2021/03/10 11:47:48;;;;;;;6.20;2.83;;;4.30;71.00;;;;;;5096767;28;20193;-76
2021/03/10 11:50:14;;;;;;;9.18;2.80;;;4.50;71.10;;;;;;5096200;28;20200;-75
2021/03/10 11:52:41;;;;;;;6.20;2.60;;;4.40;70.10;;;;;;5096867;28;20196;-76
2021/03/10 11:55:10;;;;;;;4.38;2.63;;;4.40;70.30;;;;;;5097021;28;20350;-77
2021/03/10 11:57:37;;;;;;;9.23;3.17;;;4.20;70.00;;;;;;5094418;28;20192;-75
2021/03/10 12:00:04;;;;;;;3.92;2.60;;;4.20;70.10;;;;;;5095589;28;20177;-77
2021/03/10 12:02:31;;;;;;;7.03;2.88;;;4.30;69.80;;;;;;5096445;28;20177;-79
2021/03/10 12:04:57;;;;;;;19.73;3.00;;;4.10;69.10;;;;;;5097484;28;20186;-79
2021/03/10 12:07:23;;;;;;;6.00;2.90;;;4.20;68.70;;;;;;5096537;28;20185;-79
2021/03/10 12:09:50;;;;;;;8.02;3.25;;;4.00;68.30;;;;;;5097444;28;20648;-77
2021/03/10 12:12:16;;;;;;;5.72;2.85;;;4.00;67.90;;;;;;5078421;28;20220;-78
2021/03/10 12:14:43;;;;;;;6.38;3.28;;;4.00;68.30;;;;;;5097333;28;20192;-79
2021/03/10 12:17:09;;;;;;;7.78;3.13;;;4.00;66.80;;;;;;5097686;28;20177;-77
2021/03/10 12:19:36;;;;;;;5.28;3.03;;;4.00;65.30;;;;;;5097283;28;20667;-78
2021/03/10 12:22:02;;;;;;;6.95;2.95;;;4.00;65.80;;;;;;5097464;28;20178;-77
2021/03/10 12:24:28;;;;;;;5.72;3.05;;;4.10;66.40;;;;;;5096046;28;20177;-77
2021/03/10 12:26:54;;;;;;;7.80;3.00;;;4.10;65.30;;;;;;5097469;28;20192;-80
2021/03/10 12:29:20;;;;;;;9.10;3.60;;;4.20;64.50;;;;;;5096065;28;20169;-76
2021/03/10 12:31:46;;;;;;;6.20;3.20;;;4.10;62.90;;;;;;5095825;28;20224;-78
2021/03/10 12:34:12;;;;;;;11.90;3.40;;;4.10;63.20;;;;;;5095643;28;20184;-78
2021/03/10 12:36:38;;;;;;;11.15;3.53;;;4.30;63.60;;;;;;5095100;28;20193;-77
2021/03/10 12:39:05;;;;;;;14.63;3.88;;;4.40;61.60;;;;;;5096395;28;20178;-80
2021/03/10 12:41:31;;;;;;;9.48;3.38;;;4.40;61.40;;;;;;5096698;28;20193;-80
2021/03/10 12:43:57;;;;;;;7.88;3.38;;;4.30;61.20;;;;;;5096367;28;20204;-79
2021/03/10 12:46:23;;;;;;;6.82;3.42;;;4.40;62.10;;;;;;5096509;28;20612;-80
2021/03/10 12:48:50;;;;;;;11.13;3.75;;;4.50;60.80;;;;;;5095976;28;20192;-79
2021/03/10 12:51:16;;;;;;;12.63;3.88;;;4.60;61.10;;;;;;5096110;28;20213;-78
2021/03/10 12:53:42;;;;;;;12.50;3.83;;;4.50;60.80;;;;;;5095710;28;20539;-77
2021/03/10 12:56:08;;;;;;;12.82;4.40;;;4.40;61.00;;;;;;5095298;28;20177;-75
2021/03/10 12:58:34;;;;;;;16.65;4.68;;;4.50;60.40;;;;;;5093841;28;20655;-73